createdAt,value
2023-12-03T00:01:18.772Z,287.567
2023-12-03T00:02:59.132Z,287.517
2023-12-03T00:04:39.625Z,287.533
2023-12-03T00:06:20.215Z,287.533
2023-12-03T00:08:00.485Z,287.567
2023-12-03T00:09:41.004Z,287.533
2023-12-03T00:11:21.282Z,287.533
2023-12-03T00:13:01.730Z,287.533
2023-12-03T00:14:42.195Z,287.567
2023-12-03T00:16:22.509Z,287.533
2023-12-03T00:18:02.871Z,287.583
2023-12-03T00:19:43.372Z,287.583
2023-12-03T00:21:24.195Z,287.533
2023-12-03T00:23:04.098Z,287.533
2023-12-03T00:24:44.551Z,287.567
2023-12-03T00:26:25.013Z,287.567
2023-12-03T00:28:05.439Z,287.633
2023-12-03T00:29:45.770Z,287.633
2023-12-03T00:31:26.270Z,287.583
2023-12-03T00:33:06.698Z,287.633
2023-12-03T00:34:47.009Z,287.65
2023-12-03T00:36:27.446Z,287.633
2023-12-03T00:38:07.807Z,287.633
2023-12-03T00:39:48.159Z,287.683
2023-12-03T00:41:28.573Z,287.633
2023-12-03T00:43:09.028Z,287.65
2023-12-03T00:44:49.373Z,287.633
2023-12-03T00:46:29.821Z,287.633
2023-12-03T00:48:10.389Z,287.65
2023-12-03T00:49:50.685Z,287.65
2023-12-03T00:51:31.080Z,287.683
2023-12-03T00:53:11.457Z,287.7
2023-12-03T00:54:51.890Z,287.65
2023-12-03T00:56:32.243Z,287.717
2023-12-03T00:58:12.567Z,287.7
2023-12-03T00:59:52.920Z,287.683
2023-12-03T01:01:33.425Z,287.7
2023-12-03T01:03:13.846Z,287.7
2023-12-03T01:04:54.407Z,287.7
2023-12-03T01:06:35.012Z,287.7
2023-12-03T01:08:15.110Z,287.7
2023-12-03T01:09:55.560Z,287.7
2023-12-03T01:11:36.877Z,287.683
2023-12-03T01:13:16.465Z,287.7
2023-12-03T01:14:56.805Z,287.75
2023-12-03T01:16:37.216Z,287.75
2023-12-03T01:18:17.744Z,287.717
2023-12-03T01:19:57.964Z,287.75
2023-12-03T01:21:38.331Z,287.717
2023-12-03T01:23:18.748Z,287.717
2023-12-03T01:24:59.185Z,287.717
2023-12-03T01:26:39.425Z,287.75
2023-12-03T01:28:19.838Z,287.717
2023-12-03T01:30:00.290Z,287.767
2023-12-03T01:31:40.538Z,287.8
2023-12-03T01:33:21.265Z,287.767
2023-12-03T01:35:01.469Z,287.75
2023-12-03T01:36:42.025Z,287.8
2023-12-03T01:38:22.182Z,287.767
2023-12-03T01:40:02.592Z,287.767
2023-12-03T01:41:42.897Z,287.75
2023-12-03T01:43:23.262Z,287.75
2023-12-03T01:45:03.653Z,287.817
2023-12-03T01:46:44.043Z,287.8
2023-12-03T01:48:24.523Z,287.767
2023-12-03T01:50:04.863Z,287.817
2023-12-03T01:51:45.413Z,287.8
2023-12-03T01:53:25.833Z,287.817
2023-12-03T01:55:06.228Z,287.817
2023-12-03T01:56:46.682Z,287.8
2023-12-03T01:58:27.109Z,287.817
2023-12-03T02:00:07.459Z,287.867
2023-12-03T02:01:47.890Z,287.85
2023-12-03T02:03:28.337Z,287.867
2023-12-03T02:05:08.974Z,287.867
2023-12-03T02:06:49.289Z,287.867
2023-12-03T02:08:29.596Z,287.867
2023-12-03T02:10:10.018Z,287.817
2023-12-03T02:11:50.468Z,287.867
2023-12-03T02:13:30.917Z,287.867
2023-12-03T02:15:11.400Z,287.883
2023-12-03T02:16:51.712Z,287.917
2023-12-03T02:18:32.274Z,287.883
2023-12-03T02:20:12.620Z,287.883
2023-12-03T02:21:53.124Z,287.883
2023-12-03T02:23:33.570Z,287.917
2023-12-03T02:25:14.008Z,287.883
2023-12-03T02:26:54.400Z,287.883
2023-12-03T02:28:34.807Z,287.917
2023-12-03T02:30:15.281Z,287.883
2023-12-03T02:31:55.658Z,287.917
2023-12-03T02:33:36.076Z,287.933
2023-12-03T02:35:16.378Z,287.967
2023-12-03T02:36:56.696Z,287.933
2023-12-03T02:38:37.147Z,287.933
2023-12-03T02:40:17.570Z,287.933
2023-12-03T02:41:57.976Z,287.917
2023-12-03T02:43:38.360Z,287.933
2023-12-03T02:45:18.840Z,287.967
2023-12-03T02:46:59.241Z,287.983
2023-12-03T02:48:39.757Z,287.933
2023-12-03T02:50:20.068Z,287.967
2023-12-03T02:52:00.588Z,287.967
2023-12-03T02:53:41.014Z,287.967
2023-12-03T02:55:21.348Z,287.967
2023-12-03T02:57:01.760Z,287.933
2023-12-03T02:58:42.170Z,287.933
2023-12-03T03:00:22.768Z,287.967
2023-12-03T03:02:03.158Z,287.933
2023-12-03T03:05:24.089Z,288.017
2023-12-03T03:07:04.498Z,287.983
2023-12-03T03:08:44.911Z,288.017
2023-12-03T03:10:25.378Z,288.017
2023-12-03T03:12:05.834Z,287.983
2023-12-03T03:13:46.268Z,287.983
2023-12-03T03:15:26.730Z,287.967
2023-12-03T03:17:07.059Z,288.033
2023-12-03T03:18:47.608Z,288.033
2023-12-03T03:20:28.083Z,288.017
2023-12-03T03:22:08.492Z,287.983
2023-12-03T03:23:48.944Z,288.033
2023-12-03T03:25:29.416Z,288.033
2023-12-03T03:27:09.889Z,288.017
2023-12-03T03:28:50.276Z,288.033
2023-12-03T03:30:30.850Z,288.033
2023-12-03T03:32:11.178Z,288.017
2023-12-03T03:33:51.652Z,288.033
2023-12-03T03:35:32.075Z,288.083
2023-12-03T03:37:12.430Z,288.1
2023-12-03T03:38:52.835Z,288.1
2023-12-03T03:40:33.248Z,288.05
2023-12-03T03:42:13.612Z,288.083
2023-12-03T03:43:53.878Z,288.1
2023-12-03T03:45:34.366Z,288.083
2023-12-03T03:47:14.720Z,288.083
2023-12-03T03:48:55.210Z,288.083
2023-12-03T03:50:35.676Z,288.083
2023-12-03T03:52:16.089Z,288.133
2023-12-03T03:53:56.578Z,288.133
2023-12-03T03:55:37.044Z,288.133
2023-12-03T03:57:17.428Z,288.133
2023-12-03T03:58:57.836Z,288.133
2023-12-03T04:00:38.266Z,288.1
2023-12-03T04:02:18.707Z,288.133
2023-12-03T04:03:59.154Z,288.183
2023-12-03T04:05:39.399Z,288.15
2023-12-03T04:07:19.905Z,288.183
2023-12-03T04:09:00.142Z,288.183
2023-12-03T04:10:40.570Z,288.15
2023-12-03T04:12:20.932Z,288.15
2023-12-03T04:14:01.372Z,288.15
2023-12-03T04:15:41.745Z,288.183
2023-12-03T04:17:22.118Z,288.15
2023-12-03T04:19:02.720Z,288.2
2023-12-03T04:20:42.974Z,288.183
2023-12-03T04:22:23.403Z,288.2
2023-12-03T04:24:03.734Z,288.183
2023-12-03T04:25:44.103Z,288.2
2023-12-03T04:27:24.455Z,288.183
2023-12-03T04:29:04.888Z,288.2
2023-12-03T04:30:45.272Z,288.2
2023-12-03T04:32:25.767Z,288.183
2023-12-03T04:34:06.061Z,288.2
2023-12-03T04:35:46.347Z,288.2
2023-12-03T04:37:26.797Z,288.217
2023-12-03T04:39:07.176Z,288.217
2023-12-03T04:40:47.549Z,288.217
2023-12-03T04:42:27.933Z,288.217
2023-12-03T04:44:08.340Z,288.2
2023-12-03T04:45:48.755Z,288.217
2023-12-03T04:47:29.317Z,288.217
2023-12-03T04:49:09.656Z,288.2
2023-12-03T04:50:49.998Z,288.3
2023-12-03T04:52:30.446Z,288.3
2023-12-03T04:54:10.984Z,288.267
2023-12-03T04:55:51.304Z,288.267
2023-12-03T04:57:31.704Z,288.3
2023-12-03T04:59:11.981Z,288.267
2023-12-03T05:00:52.482Z,288.3
2023-12-03T05:02:32.765Z,288.3
2023-12-03T05:04:13.277Z,288.317
2023-12-03T05:05:53.539Z,288.317
2023-12-03T05:07:34.183Z,288.35
2023-12-03T05:09:14.515Z,288.317
2023-12-03T05:10:54.805Z,288.35
2023-12-03T05:12:35.284Z,288.35
2023-12-03T05:14:15.756Z,288.35
2023-12-03T05:15:56.110Z,288.35
2023-12-03T05:17:38.284Z,288.317
2023-12-03T05:19:17.061Z,288.317
2023-12-03T05:20:57.361Z,288.317
2023-12-03T05:22:37.785Z,288.35
2023-12-03T05:24:18.245Z,288.367
2023-12-03T05:25:58.758Z,288.35
2023-12-03T05:27:39.090Z,288.367
2023-12-03T05:29:19.474Z,288.35
2023-12-03T05:30:59.917Z,288.35
2023-12-03T05:32:40.670Z,288.317
2023-12-03T05:34:20.903Z,288.367
2023-12-03T05:36:01.177Z,288.417
2023-12-03T05:37:41.628Z,288.383
2023-12-03T05:39:22.076Z,288.417
2023-12-03T05:41:02.444Z,288.383
2023-12-03T05:42:42.855Z,288.383
2023-12-03T05:44:23.299Z,288.383
2023-12-03T05:46:03.724Z,288.383
2023-12-03T05:47:44.191Z,288.383
2023-12-03T05:49:24.635Z,288.383
2023-12-03T05:51:04.951Z,288.433
2023-12-03T05:52:45.355Z,288.417
2023-12-03T05:54:25.787Z,288.433
2023-12-03T05:56:06.212Z,288.433
2023-12-03T05:57:46.681Z,288.433
2023-12-03T05:59:27.036Z,288.417
2023-12-03T06:01:07.417Z,288.417
2023-12-03T06:02:47.875Z,288.467
2023-12-03T06:04:28.306Z,288.467
2023-12-03T06:06:08.727Z,288.433
2023-12-03T06:07:49.333Z,288.433
2023-12-03T06:09:29.548Z,288.467
2023-12-03T06:11:09.922Z,288.467
2023-12-03T06:12:50.285Z,288.467
2023-12-03T06:14:30.641Z,288.483
2023-12-03T06:16:11.053Z,288.467
2023-12-03T06:17:51.592Z,288.467
2023-12-03T06:19:31.937Z,288.517
2023-12-03T06:21:12.344Z,288.517
2023-12-03T06:22:52.706Z,288.517
2023-12-03T06:24:33.186Z,288.533
2023-12-03T06:26:13.518Z,288.533
2023-12-03T06:27:53.873Z,288.517
2023-12-03T06:29:34.246Z,288.517
2023-12-03T06:31:14.644Z,288.517
2023-12-03T06:32:55.029Z,288.517
2023-12-03T06:34:35.363Z,288.517
2023-12-03T06:36:15.768Z,288.483
2023-12-03T06:37:56.151Z,288.55
2023-12-03T06:39:36.599Z,288.55
2023-12-03T06:41:16.953Z,288.55
2023-12-03T06:42:57.443Z,288.55
2023-12-03T06:44:44.177Z,288.583
2023-12-03T06:46:18.148Z,288.533
2023-12-03T06:47:58.619Z,288.55
2023-12-03T06:49:39.114Z,288.55
2023-12-03T06:51:19.491Z,288.55
2023-12-03T06:52:59.801Z,288.6
2023-12-03T06:54:40.230Z,288.6
2023-12-03T06:56:20.633Z,288.583
2023-12-03T06:58:01.105Z,288.583
2023-12-03T06:59:41.518Z,288.583
2023-12-03T07:01:21.908Z,288.583
2023-12-03T07:03:02.296Z,288.583
2023-12-03T07:04:43.107Z,288.583
2023-12-03T07:06:23.151Z,288.633
2023-12-03T07:08:03.515Z,288.633
2023-12-03T07:09:43.925Z,288.633
2023-12-03T07:11:24.399Z,288.633
2023-12-03T07:13:04.721Z,288.6
2023-12-03T07:14:45.114Z,288.65
2023-12-03T07:16:25.591Z,288.633
2023-12-03T07:18:05.981Z,288.65
2023-12-03T07:19:46.412Z,288.6
2023-12-03T07:21:26.847Z,288.6
2023-12-03T07:23:07.151Z,288.65
2023-12-03T07:24:47.548Z,288.65
2023-12-03T07:26:27.931Z,288.683
2023-12-03T07:28:08.395Z,288.65
2023-12-03T07:29:48.791Z,288.683
2023-12-03T07:31:29.205Z,288.65
2023-12-03T07:33:09.737Z,288.65
2023-12-03T07:34:49.994Z,288.683
2023-12-03T07:36:30.349Z,288.683
2023-12-03T07:38:10.782Z,288.7
2023-12-03T07:39:51.267Z,288.7
2023-12-03T07:41:31.666Z,288.7
2023-12-03T07:43:12.078Z,288.683
2023-12-03T07:44:52.498Z,288.683
2023-12-03T07:46:32.910Z,288.7
2023-12-03T07:48:13.360Z,288.683
2023-12-03T07:49:53.807Z,288.717
2023-12-03T07:51:34.218Z,288.7
2023-12-03T07:53:14.634Z,288.75
2023-12-03T07:54:55.039Z,288.683
2023-12-03T07:56:35.346Z,288.75
2023-12-03T07:58:15.769Z,288.717
2023-12-03T07:59:56.216Z,288.767
2023-12-03T08:01:36.624Z,288.75
2023-12-03T08:03:17.016Z,288.767
2023-12-03T08:04:57.515Z,288.75
2023-12-03T08:06:37.887Z,288.767
2023-12-03T08:08:18.357Z,288.767
2023-12-03T08:09:58.818Z,288.767
2023-12-03T08:11:39.255Z,288.817
2023-12-03T08:13:19.786Z,288.8
2023-12-03T08:15:00.246Z,288.75
2023-12-03T08:16:40.559Z,288.8
2023-12-03T08:18:20.963Z,288.8
2023-12-03T08:20:01.374Z,288.8
2023-12-03T08:21:41.675Z,288.767
2023-12-03T08:23:22.045Z,288.767
2023-12-03T08:25:02.352Z,288.8
2023-12-03T08:26:42.777Z,288.817
2023-12-03T08:28:23.247Z,288.833
2023-12-03T08:30:03.687Z,288.817
2023-12-03T08:31:44.533Z,288.817
2023-12-03T08:33:24.457Z,288.817
2023-12-03T08:35:04.811Z,288.817
2023-12-03T08:36:45.220Z,288.817
2023-12-03T08:38:25.578Z,288.833
2023-12-03T08:40:06.028Z,288.833
2023-12-03T08:41:46.404Z,288.833
2023-12-03T08:43:26.860Z,288.8
2023-12-03T08:45:07.276Z,288.867
2023-12-03T08:46:47.673Z,288.867
2023-12-03T08:48:28.209Z,288.833
2023-12-03T08:50:08.602Z,288.883
2023-12-03T08:51:49.106Z,288.867
2023-12-03T08:53:29.467Z,288.867
2023-12-03T08:55:09.889Z,288.867
2023-12-03T08:56:50.270Z,288.833
2023-12-03T08:58:30.594Z,288.867
2023-12-03T09:00:10.939Z,288.917
2023-12-03T09:01:51.319Z,288.883
2023-12-03T09:03:31.899Z,288.883
2023-12-03T09:05:12.169Z,288.883
2023-12-03T09:06:52.661Z,288.883
2023-12-03T09:08:32.950Z,288.883
2023-12-03T09:10:13.323Z,288.883
2023-12-03T09:11:53.813Z,288.883
2023-12-03T09:13:34.172Z,288.933
2023-12-03T09:15:14.581Z,288.917
2023-12-03T09:16:55.022Z,288.917
2023-12-03T09:18:35.805Z,288.933
2023-12-03T09:20:15.796Z,288.917
2023-12-03T09:21:56.301Z,288.917
2023-12-03T09:23:36.651Z,288.917
2023-12-03T09:25:16.949Z,288.917
2023-12-03T09:26:57.374Z,288.917
2023-12-03T09:28:37.809Z,288.917
2023-12-03T09:30:18.212Z,288.983
2023-12-03T09:31:58.593Z,288.933
2023-12-03T09:33:39.144Z,288.983
2023-12-03T09:35:19.483Z,289
2023-12-03T09:36:59.945Z,289
2023-12-03T09:38:42.799Z,288.983
2023-12-03T09:40:20.758Z,288.983
2023-12-03T09:42:01.130Z,288.983
2023-12-03T09:43:41.653Z,289
2023-12-03T09:45:21.997Z,288.983
2023-12-03T09:47:02.417Z,289.033
2023-12-03T09:48:42.930Z,289
2023-12-03T09:50:23.209Z,289
2023-12-03T09:52:03.680Z,289.033
2023-12-03T09:53:44.057Z,289
2023-12-03T09:55:24.443Z,289.05
2023-12-03T09:57:04.812Z,289.033
2023-12-03T09:58:45.196Z,289.033
2023-12-03T10:00:25.518Z,289.033
2023-12-03T10:02:06.118Z,289.033
2023-12-03T10:03:46.802Z,289.033
2023-12-03T10:05:27.062Z,289.05
2023-12-03T10:07:07.340Z,289.05
2023-12-03T10:08:47.819Z,289.033
2023-12-03T10:10:28.219Z,289.033
2023-12-03T10:12:08.458Z,289.033
2023-12-03T10:13:48.950Z,289.05
2023-12-03T10:15:29.368Z,289.083
2023-12-03T10:17:09.799Z,289.083
2023-12-03T10:18:50.293Z,289.1
2023-12-03T10:20:30.719Z,289.083
2023-12-03T10:22:11.169Z,289.083
2023-12-03T10:23:51.613Z,289.1
2023-12-03T10:25:32.132Z,289.1
2023-12-03T10:27:12.569Z,289.083
2023-12-03T10:28:52.906Z,289.1
2023-12-03T10:30:33.391Z,289.1
2023-12-03T10:32:13.852Z,289.083
2023-12-03T10:33:54.308Z,289.133
2023-12-03T10:35:34.760Z,289.133
2023-12-03T10:37:15.084Z,289.133
2023-12-03T10:38:55.557Z,289.1
2023-12-03T10:40:36.022Z,289.133
2023-12-03T10:42:16.515Z,289.133
2023-12-03T10:43:56.968Z,289.1
2023-12-03T10:45:37.964Z,289.1
2023-12-03T10:47:17.822Z,289.167
2023-12-03T10:48:58.286Z,289.133
2023-12-03T10:50:38.663Z,289.2
2023-12-03T10:52:19.112Z,289.167
2023-12-03T10:53:59.556Z,289.2
2023-12-03T10:55:40.034Z,289.217
2023-12-03T10:57:20.564Z,289.2
2023-12-03T10:59:00.956Z,289.2
2023-12-03T11:00:41.521Z,289.2
2023-12-03T11:02:21.754Z,289.217
2023-12-03T11:04:02.303Z,289.25
2023-12-03T11:05:42.784Z,289.25
2023-12-03T11:07:23.124Z,289.217
2023-12-03T11:09:03.607Z,289.217
2023-12-03T11:10:44.014Z,289.2
2023-12-03T11:12:24.551Z,289.25
2023-12-03T11:14:04.852Z,289.25
2023-12-03T11:15:45.282Z,289.217
2023-12-03T11:17:25.692Z,289.267
2023-12-03T11:19:06.260Z,289.25
2023-12-03T11:20:46.630Z,289.267
2023-12-03T11:22:27.051Z,289.25
2023-12-03T11:24:07.434Z,289.267
2023-12-03T11:25:47.933Z,289.267
2023-12-03T11:27:28.394Z,289.267
2023-12-03T11:29:08.820Z,289.267
2023-12-03T11:30:49.363Z,289.267
2023-12-03T11:32:35.582Z,289.3
2023-12-03T11:34:10.361Z,289.3
2023-12-03T11:35:50.630Z,289.317
2023-12-03T11:37:31.097Z,289.3
2023-12-03T11:39:11.544Z,289.3
2023-12-03T11:40:51.990Z,289.317
2023-12-03T11:42:32.395Z,289.317
2023-12-03T11:44:12.824Z,289.3
2023-12-03T11:45:53.281Z,289.333
2023-12-03T11:47:33.683Z,289.267
2023-12-03T11:49:14.142Z,289.333
2023-12-03T11:50:54.435Z,289.333
2023-12-03T11:52:34.905Z,289.333
2023-12-03T11:54:15.296Z,289.317
2023-12-03T11:55:55.783Z,289.317
2023-12-03T11:57:36.372Z,289.317
2023-12-03T11:59:16.668Z,289.333
2023-12-03T12:00:57.008Z,289.333
2023-12-03T12:02:37.526Z,289.333
2023-12-03T12:04:17.963Z,289.333
2023-12-03T12:05:58.446Z,289.367
2023-12-03T12:07:38.791Z,289.367
2023-12-03T12:09:19.203Z,289.367
2023-12-03T12:10:59.715Z,289.383
2023-12-03T12:12:40.162Z,289.367
2023-12-03T12:14:20.763Z,289.367
2023-12-03T12:16:01.056Z,289.367
2023-12-03T12:17:41.460Z,289.367
2023-12-03T12:19:22.072Z,289.383
2023-12-03T12:21:02.362Z,289.433
2023-12-03T12:22:42.795Z,289.417
2023-12-03T12:24:23.247Z,289.417
2023-12-03T12:26:03.741Z,289.417
2023-12-03T12:27:44.149Z,289.433
2023-12-03T12:29:24.629Z,289.433
2023-12-03T12:31:05.052Z,289.433
2023-12-03T12:32:45.533Z,289.417
2023-12-03T12:34:26.048Z,289.433
2023-12-03T12:36:06.270Z,289.467
2023-12-03T12:37:46.736Z,289.467
2023-12-03T12:39:27.215Z,289.433
2023-12-03T12:41:07.579Z,289.483
2023-12-03T12:42:48.085Z,289.467
2023-12-03T12:44:28.433Z,289.483
2023-12-03T12:46:08.979Z,289.467
2023-12-03T12:47:56.844Z,289.5
2023-12-03T12:49:37.427Z,289.467
2023-12-03T12:51:17.736Z,289.483
2023-12-03T12:52:58.194Z,289.5
2023-12-03T12:54:38.627Z,289.483
2023-12-03T12:56:19.008Z,289.5
2023-12-03T12:57:59.591Z,289.483
2023-12-03T12:59:39.903Z,289.483
2023-12-03T13:01:20.404Z,289.5
2023-12-03T13:03:00.825Z,289.5
2023-12-03T13:04:41.484Z,289.483
2023-12-03T13:06:21.689Z,289.533
2023-12-03T13:08:02.105Z,289.5
2023-12-03T13:09:42.632Z,289.55
2023-12-03T13:11:23.052Z,289.533
2023-12-03T13:13:03.546Z,289.55
2023-12-03T13:14:44.021Z,289.5
2023-12-03T13:16:24.521Z,289.533
2023-12-03T13:18:12.776Z,289.5
2023-12-03T13:19:52.427Z,289.533
2023-12-03T13:21:32.830Z,289.5
2023-12-03T13:23:14.035Z,289.583
2023-12-03T13:24:54.477Z,289.55
2023-12-03T13:26:34.831Z,289.55
2023-12-03T13:28:15.221Z,289.55
2023-12-03T13:29:55.846Z,289.55
2023-12-03T13:31:36.271Z,289.583
2023-12-03T13:33:16.795Z,289.583
2023-12-03T13:34:57.106Z,289.583
2023-12-03T13:36:41.589Z,289.6
2023-12-03T13:38:21.938Z,289.55
2023-12-03T13:40:02.515Z,289.6
2023-12-03T13:41:42.814Z,289.6
2023-12-03T13:43:23.217Z,289.6
2023-12-03T13:45:03.716Z,289.6
2023-12-03T13:46:44.072Z,289.633
2023-12-03T13:48:24.727Z,289.6
2023-12-03T13:50:04.962Z,289.583
2023-12-03T13:51:45.477Z,289.667
2023-12-03T13:53:25.781Z,289.65
2023-12-03T13:55:06.213Z,289.667
2023-12-03T13:56:46.707Z,289.65
2023-12-03T13:58:27.084Z,289.65
2023-12-03T14:00:07.578Z,289.667
2023-12-03T14:01:47.913Z,289.65
2023-12-03T14:03:28.291Z,289.667
2023-12-03T14:05:20.075Z,289.667
2023-12-03T14:06:49.199Z,289.667
2023-12-03T14:08:29.665Z,289.7
2023-12-03T14:10:10.054Z,289.7
2023-12-03T14:11:50.598Z,289.7
2023-12-03T14:13:30.999Z,289.667
2023-12-03T14:15:11.399Z,289.7
2023-12-03T14:16:51.804Z,289.7
2023-12-03T14:18:32.538Z,289.7
2023-12-03T14:20:12.649Z,289.717
2023-12-03T14:21:53.439Z,289.75
2023-12-03T14:23:33.430Z,289.7
2023-12-03T14:25:13.875Z,289.717
2023-12-03T14:26:54.358Z,289.717
2023-12-03T14:28:34.745Z,289.717
2023-12-03T14:30:15.251Z,289.75
2023-12-03T14:31:55.650Z,289.717
2023-12-03T14:33:36.157Z,289.75
2023-12-03T14:35:16.420Z,289.717
2023-12-03T14:36:56.825Z,289.75
2023-12-03T14:38:37.267Z,289.717
2023-12-03T14:40:17.739Z,289.767
2023-12-03T14:41:58.164Z,289.75
2023-12-03T14:43:38.578Z,289.767
2023-12-03T14:45:19.043Z,289.75
2023-12-03T14:46:59.490Z,289.767
2023-12-03T14:48:40.014Z,289.8
2023-12-03T14:50:20.411Z,289.767
2023-12-03T14:52:00.888Z,289.767
2023-12-03T14:53:41.194Z,289.767
2023-12-03T14:55:21.622Z,289.767
2023-12-03T14:57:02.046Z,289.767
2023-12-03T14:58:42.340Z,289.8
2023-12-03T15:00:22.790Z,289.817
2023-12-03T15:02:03.176Z,289.8
2023-12-03T15:03:43.579Z,289.8
2023-12-03T15:05:23.874Z,289.817
2023-12-03T15:07:04.267Z,289.817
2023-12-03T15:08:44.713Z,289.8
2023-12-03T15:10:25.070Z,289.8
2023-12-03T15:12:05.571Z,289.817
2023-12-03T15:13:45.968Z,289.833
2023-12-03T15:15:26.278Z,289.8
2023-12-03T15:17:06.682Z,289.833
2023-12-03T15:18:47.212Z,289.817
2023-12-03T15:20:27.627Z,289.817
2023-12-03T15:22:08.017Z,289.817
2023-12-03T15:23:48.540Z,289.833
2023-12-03T15:25:28.980Z,289.867
2023-12-03T15:27:09.497Z,289.817
2023-12-03T15:28:50.088Z,289.833
2023-12-03T15:30:30.644Z,289.917
2023-12-03T15:32:10.825Z,289.883
2023-12-03T15:33:51.341Z,289.883
2023-12-03T15:35:31.837Z,289.867
2023-12-03T15:37:12.189Z,289.917
2023-12-03T15:38:52.577Z,289.883
2023-12-03T15:40:33.025Z,289.917
2023-12-03T15:42:13.466Z,289.917
2023-12-03T15:43:53.877Z,289.883
2023-12-03T15:45:34.222Z,289.917
2023-12-03T15:47:14.558Z,289.95
2023-12-03T15:48:59.116Z,289.933
2023-12-03T15:50:35.376Z,289.933
2023-12-03T15:52:15.774Z,289.933
2023-12-03T15:53:56.129Z,289.917
2023-12-03T15:55:36.655Z,289.933
2023-12-03T15:57:17.117Z,289.917
2023-12-03T15:58:57.546Z,289.933
2023-12-03T16:00:38.012Z,289.933
2023-12-03T16:02:18.502Z,289.933
2023-12-03T16:03:59.004Z,289.95
2023-12-03T16:05:39.509Z,289.983
2023-12-03T16:07:19.845Z,289.95
2023-12-03T16:09:00.300Z,289.95
2023-12-03T16:10:40.740Z,289.983
2023-12-03T16:12:21.241Z,289.95
2023-12-03T16:14:01.726Z,289.95
2023-12-03T16:15:42.111Z,290
2023-12-03T16:17:27.533Z,289.983
2023-12-03T16:19:03.021Z,289.983
2023-12-03T16:20:43.372Z,289.983
2023-12-03T16:22:23.811Z,290
2023-12-03T16:24:04.219Z,289.983
2023-12-03T16:25:44.701Z,289.983
2023-12-03T16:27:25.120Z,290
2023-12-03T16:29:06.662Z,290
2023-12-03T16:30:45.997Z,290
2023-12-03T16:32:26.425Z,290.033
2023-12-03T16:34:06.989Z,290.033
2023-12-03T16:35:47.490Z,290
2023-12-03T16:37:27.786Z,290.05
2023-12-03T16:39:08.220Z,290.05
2023-12-03T16:40:48.713Z,290.033
2023-12-03T16:42:30.560Z,290.033
2023-12-03T16:44:09.672Z,290.033
2023-12-03T16:45:50.101Z,290.1
2023-12-03T16:47:30.708Z,290.1
2023-12-03T16:49:11.107Z,290.1
2023-12-03T16:50:51.409Z,290.1
2023-12-03T16:52:31.938Z,290.1
2023-12-03T16:54:12.450Z,290.083
2023-12-03T16:55:52.915Z,290.117
2023-12-03T16:57:33.273Z,290.1
2023-12-03T16:59:13.679Z,290.1
2023-12-03T17:00:54.197Z,290.1
2023-12-03T17:02:34.653Z,290.117
2023-12-03T17:04:15.044Z,290.117
2023-12-03T17:05:55.619Z,290.117
2023-12-03T17:07:36.037Z,290.117
2023-12-03T17:09:16.493Z,290.15
2023-12-03T17:10:56.883Z,290.1
2023-12-03T17:12:44.593Z,290.117
2023-12-03T17:14:17.730Z,290.083
2023-12-03T17:15:58.380Z,290.117
2023-12-03T17:17:38.793Z,290.15
2023-12-03T17:19:19.341Z,290.167
2023-12-03T17:20:59.671Z,290.15
2023-12-03T17:22:40.057Z,290.15
2023-12-03T17:24:20.508Z,290.167
2023-12-03T17:26:00.928Z,290.15
2023-12-03T17:27:41.357Z,290.167
2023-12-03T17:29:21.784Z,290.167
2023-12-03T17:31:02.269Z,290.167
2023-12-03T17:32:42.664Z,290.2
2023-12-03T17:34:23.172Z,290.2
2023-12-03T17:36:03.515Z,290.2
2023-12-03T17:37:43.975Z,290.167
2023-12-03T17:39:24.345Z,290.2
2023-12-03T17:41:04.749Z,290.167
2023-12-03T17:42:45.186Z,290.217
2023-12-03T17:44:25.631Z,290.2
2023-12-03T17:46:06.159Z,290.217
2023-12-03T17:47:46.499Z,290.217
2023-12-03T17:49:26.904Z,290.217
2023-12-03T17:51:07.227Z,290.217
2023-12-03T17:52:47.737Z,290.25
2023-12-03T17:54:28.239Z,290.25
2023-12-03T17:56:10.710Z,290.25
2023-12-03T17:57:49.130Z,290.25
2023-12-03T17:59:29.546Z,290.25
2023-12-03T18:01:10.103Z,290.25
2023-12-03T18:02:50.524Z,290.25
2023-12-03T18:04:31.003Z,290.25
2023-12-03T18:06:11.437Z,290.283
2023-12-03T18:07:51.896Z,290.267
2023-12-03T18:09:32.331Z,290.267
2023-12-03T18:11:12.709Z,290.283
2023-12-03T18:12:53.182Z,290.267
2023-12-03T18:14:33.567Z,290.267
2023-12-03T18:16:14.037Z,290.267
2023-12-03T18:17:57.441Z,290.333
2023-12-03T18:19:34.984Z,290.383
2023-12-03T18:21:15.265Z,290.333
2023-12-03T18:22:55.704Z,290.333
2023-12-03T18:24:36.152Z,290.333
2023-12-03T18:26:16.518Z,290.333
2023-12-03T18:27:56.990Z,290.333
2023-12-03T18:29:37.356Z,290.333
2023-12-03T18:31:17.852Z,290.367
2023-12-03T18:32:58.324Z,290.317
2023-12-03T18:34:38.592Z,290.367
2023-12-03T18:36:19.034Z,290.333
2023-12-03T18:37:59.452Z,290.367
2023-12-03T18:39:39.919Z,290.383
2023-12-03T18:41:20.301Z,290.383
2023-12-03T18:43:00.735Z,290.383
2023-12-03T18:44:41.280Z,290.367
2023-12-03T18:46:21.547Z,290.383
2023-12-03T18:48:02.013Z,290.383
2023-12-03T18:49:42.399Z,290.367
2023-12-03T18:51:22.751Z,290.333
2023-12-03T18:53:03.200Z,290.383
2023-12-03T18:54:43.708Z,290.383
2023-12-03T18:56:23.973Z,290.417
2023-12-03T18:58:04.499Z,290.417
2023-12-03T18:59:46.263Z,290.417
2023-12-03T19:01:25.284Z,290.417
2023-12-03T19:03:05.793Z,290.383
2023-12-03T19:04:46.214Z,290.383
2023-12-03T19:06:26.706Z,290.45
2023-12-03T19:08:07.070Z,290.45
2023-12-03T19:09:47.571Z,290.45
2023-12-03T19:11:27.921Z,290.433
2023-12-03T19:13:16.276Z,290.433
2023-12-03T19:14:48.774Z,290.433
2023-12-03T19:16:29.264Z,290.433
2023-12-03T19:18:09.613Z,290.483
2023-12-03T19:19:49.997Z,290.483
2023-12-03T19:21:30.345Z,290.483
2023-12-03T19:23:10.649Z,290.483
2023-12-03T19:24:51.083Z,290.483
2023-12-03T19:26:31.500Z,290.45
2023-12-03T19:28:11.830Z,290.433
2023-12-03T19:29:52.265Z,290.45
2023-12-03T19:31:32.756Z,290.45
2023-12-03T19:33:13.247Z,290.483
2023-12-03T19:34:53.682Z,290.483
2023-12-03T19:36:34.077Z,290.5
2023-12-03T19:38:14.395Z,290.533
2023-12-03T19:39:54.803Z,290.483
2023-12-03T19:41:35.105Z,290.5
2023-12-03T19:43:15.460Z,290.483
2023-12-03T19:44:55.827Z,290.5
2023-12-03T19:46:36.204Z,290.5
2023-12-03T19:48:16.625Z,290.5
2023-12-03T19:49:56.947Z,290.583
2023-12-03T19:51:37.334Z,290.583
2023-12-03T19:53:17.674Z,290.55
2023-12-03T19:54:58.136Z,290.583
2023-12-03T19:56:38.558Z,290.55
2023-12-03T19:58:19.113Z,290.583
2023-12-03T19:59:59.332Z,290.583
2023-12-03T20:01:39.756Z,290.583
2023-12-03T20:03:20.055Z,290.6
2023-12-03T20:05:00.781Z,290.583
2023-12-03T20:06:40.821Z,290.6
2023-12-03T20:08:21.166Z,290.617
2023-12-03T20:10:01.948Z,290.6
2023-12-03T20:11:41.940Z,290.6
2023-12-03T20:13:22.363Z,290.6
2023-12-03T20:15:02.673Z,290.617
2023-12-03T20:16:43.029Z,290.6
2023-12-03T20:18:23.437Z,290.667
2023-12-03T20:20:03.824Z,290.617
2023-12-03T20:21:44.169Z,290.65
2023-12-03T20:23:24.480Z,290.617
2023-12-03T20:25:04.986Z,290.6
2023-12-03T20:26:45.222Z,290.65
2023-12-03T20:28:25.551Z,290.65
2023-12-03T20:30:05.886Z,290.65
2023-12-03T20:31:46.287Z,290.65
2023-12-03T20:33:26.708Z,290.667
2023-12-03T20:35:06.917Z,290.667
2023-12-03T20:36:47.448Z,290.65